Time;durP1;ratioP1;P1;durP2;ratioP2;P2;SDS_P1;SDS_P2;PMS_P1;PMS_P2;Temp;Humidity;BMP_temperature;BMP_pressure;BME280_temperature;BME280_humidity;BME280_pressure;Samples;Min_cycle;Max_cycle;Signal;HPM_P1;HPM_P2
2021/04/25 00:03:41;;;;;;;12.70;7.60;;;;;;;3.20;100.00;98931.45;3771002;78;44343;-27
2021/04/25 00:08:47;;;;;;;13.00;7.60;;;;;;;3.18;100.00;98925.85;3768240;78;44627;-27
2021/04/25 00:13:53;;;;;;;11.13;6.60;;;;;;;3.15;100.00;98915.40;3767349;79;43674;-27
2021/04/25 00:18:59;;;;;;;13.13;7.50;;;;;;;3.04;100.00;98915.64;3766363;79;44099;-27
2021/04/25 00:24:06;;;;;;;11.50;6.93;;;;;;;3.04;100.00;98907.65;3765194;79;43019;-27
2021/04/25 00:29:12;;;;;;;11.07;6.87;;;;;;;2.96;100.00;98909.97;3767689;79;44042;-27
2021/04/25 00:34:17;;;;;;;10.67;6.07;;;;;;;2.92;100.00;98907.12;3766948;79;43315;-27
2021/04/25 00:39:23;;;;;;;10.93;6.77;;;;;;;2.91;100.00;98906.28;3765704;79;43462;-27
2021/04/25 00:44:29;;;;;;;11.40;7.13;;;;;;;2.86;100.00;98905.72;3768119;79;44610;-27
2021/04/25 00:49:35;;;;;;;11.40;6.50;;;;;;;2.74;100.00;98904.73;3765221;79;43989;-27
2021/04/25 00:54:42;;;;;;;9.70;6.30;;;;;;;2.58;100.00;98915.97;3767959;79;44081;-27
2021/04/25 00:59:48;;;;;;;13.80;7.40;;;;;;;2.50;100.00;98907.64;3768117;79;43667;-27
2021/04/25 01:04:53;;;;;;;12.77;7.30;;;;;;;2.45;100.00;98910.10;3765464;78;43313;-27
2021/04/25 01:09:59;;;;;;;12.83;6.77;;;;;;;2.42;100.00;98904.97;3774994;78;43986;-27
2021/04/25 01:15:09;;;;;;;14.10;7.00;;;;;;;2.42;100.00;98912.11;3774812;78;43286;-27
2021/04/25 01:20:18;;;;;;;11.90;7.47;;;;;;;2.35;100.00;98911.64;3771860;78;43573;-27
2021/04/25 01:25:26;;;;;;;12.60;6.60;;;;;;;2.34;100.00;98918.40;3774239;78;43449;-27
2021/04/25 01:30:33;;;;;;;11.17;6.90;;;;;;;2.26;100.00;98915.73;3775105;78;44051;-26
2021/04/25 01:35:39;;;;;;;12.50;7.17;;;;;;;2.15;100.00;98912.43;3770136;78;43720;-27
2021/04/25 01:40:45;;;;;;;11.20;6.67;;;;;;;2.15;100.00;98917.75;3774931;78;43706;-26
2021/04/25 01:45:59;;;;;;;11.00;6.80;;;;;;;2.07;100.00;98917.34;3774186;78;42918;-27
2021/04/25 01:51:05;;;;;;;9.47;6.20;;;;;;;2.06;100.00;98916.96;3768112;78;44026;-27
2021/04/25 01:56:11;;;;;;;12.10;7.20;;;;;;;2.01;100.00;98912.42;3772986;78;44313;-26
2021/04/25 02:01:17;;;;;;;12.50;6.77;;;;;;;1.89;100.00;98923.32;3774679;78;43333;-26
2021/04/25 02:06:23;;;;;;;10.70;6.50;;;;;;;1.80;100.00;98914.59;3770107;78;44190;-27
2021/04/25 02:11:29;;;;;;;14.43;7.30;;;;;;;1.80;100.00;98912.80;3766862;79;43959;-28
2021/04/25 02:16:35;;;;;;;11.30;6.80;;;;;;;1.66;100.00;98914.95;3766710;79;43368;-31
2021/04/25 02:21:41;;;;;;;12.47;6.93;;;;;;;1.59;100.00;98916.77;3762465;79;44086;-27
2021/04/25 02:26:47;;;;;;;12.30;7.17;;;;;;;1.54;100.00;98913.03;3764202;79;44101;-27
2021/04/25 02:31:55;;;;;;;10.40;7.20;;;;;;;1.57;100.00;98916.00;3761148;79;44232;-27
2021/04/25 02:37:01;;;;;;;14.63;7.60;;;;;;;1.51;100.00;98922.05;3764900;79;43695;-27
2021/04/25 02:42:07;;;;;;;12.77;7.13;;;;;;;1.49;100.00;98915.12;3765925;79;44418;-27
2021/04/25 02:47:13;;;;;;;11.90;6.70;;;;;;;1.48;100.00;98910.75;3765711;79;43717;-27
2021/04/25 02:52:19;;;;;;;14.87;7.30;;;;;;;1.49;100.00;98908.00;3762162;79;44480;-27
2021/04/25 02:57:25;;;;;;;10.97;7.40;;;;;;;1.48;100.00;98905.45;3760108;79;43638;-27
2021/04/25 03:02:32;;;;;;;12.97;7.23;;;;;;;1.40;100.00;98912.53;3765353;79;43415;-27
2021/04/25 03:07:38;;;;;;;12.50;7.63;;;;;;;1.41;100.00;98903.63;3767327;77;44014;-27
2021/04/25 03:12:46;;;;;;;15.27;7.23;;;;;;;1.45;100.00;98897.20;3772275;78;43726;-27
2021/04/25 03:17:52;;;;;;;14.67;8.07;;;;;;;1.46;100.00;98894.05;3767518;78;44419;-26
2021/04/25 03:22:59;;;;;;;15.77;8.07;;;;;;;1.42;100.00;98904.01;3771672;78;44042;-26
2021/04/25 03:28:07;;;;;;;13.93;7.97;;;;;;;1.41;100.00;98902.79;3772262;78;43746;-27
2021/04/25 03:33:15;;;;;;;15.00;7.93;;;;;;;1.32;100.00;98898.38;3766272;78;43705;-27
2021/04/25 03:38:20;;;;;;;14.87;7.60;;;;;;;1.35;100.00;98901.35;3771810;78;43320;-27
2021/04/25 03:43:27;;;;;;;14.10;8.07;;;;;;;1.33;100.00;98905.41;3771113;78;44182;-26
2021/04/25 03:48:33;;;;;;;13.40;7.80;;;;;;;1.31;100.00;98910.43;3765064;78;44080;-27
2021/04/25 03:53:39;;;;;;;14.20;8.30;;;;;;;1.23;100.00;98902.91;3769047;78;43677;-27
2021/04/25 03:58:45;;;;;;;13.83;7.50;;;;;;;1.22;100.00;98907.38;3771908;78;43352;-27
2021/04/25 04:03:52;;;;;;;11.87;7.27;;;;;;;1.18;100.00;98903.64;3767906;78;44079;-27
2021/04/25 04:08:59;;;;;;;12.70;7.07;;;;;;;1.08;100.00;98904.67;3769335;78;43685;-27
2021/04/25 04:14:05;;;;;;;12.60;7.70;;;;;;;0.90;100.00;98910.57;3772343;78;44039;-27
2021/04/25 04:19:11;;;;;;;12.43;7.43;;;;;;;0.82;100.00;98911.00;3769610;78;44119;-27
2021/04/25 04:24:17;;;;;;;12.97;7.60;;;;;;;0.74;100.00;98925.19;3771864;78;43372;-27
2021/04/25 04:29:22;;;;;;;14.77;8.40;;;;;;;0.68;100.00;98925.51;3771781;78;43466;-27
2021/04/25 04:34:28;;;;;;;13.47;7.50;;;;;;;0.74;100.00;98931.33;3763637;78;44331;-27
2021/04/25 04:39:34;;;;;;;15.27;8.50;;;;;;;0.78;100.00;98928.51;3770456;78;44083;-27
2021/04/25 04:44:40;;;;;;;12.13;7.80;;;;;;;0.73;100.00;98927.45;3770301;78;44525;-26
2021/04/25 04:49:46;;;;;;;15.73;8.00;;;;;;;0.74;100.00;98928.67;3767614;78;43474;-26
2021/04/25 04:54:53;;;;;;;13.60;8.17;;;;;;;0.80;100.00;98932.77;3769810;78;43040;-26
2021/04/25 05:00:00;;;;;;;13.83;7.70;;;;;;;0.87;100.00;98939.46;3769043;78;43686;-27
2021/04/25 05:05:09;;;;;;;13.47;7.50;;;;;;;0.95;100.00;98935.51;3769577;78;44104;-27
2021/04/25 05:10:15;;;;;;;13.23;7.83;;;;;;;0.98;100.00;98930.88;3763331;77;44193;-27
2021/04/25 05:15:20;;;;;;;15.23;8.30;;;;;;;0.92;100.00;98936.06;3763792;79;43136;-25
2021/04/25 05:20:28;;;;;;;13.23;7.97;;;;;;;0.96;100.00;98939.88;3759558;79;43467;-25
2021/04/25 05:25:34;;;;;;;13.40;8.03;;;;;;;1.07;100.00;98939.63;3761399;79;44540;-26
2021/04/25 05:30:40;;;;;;;15.37;8.10;;;;;;;1.07;100.00;98938.78;3764758;79;44076;-26
2021/04/25 05:35:46;;;;;;;12.90;8.33;;;;;;;1.14;100.00;98937.48;3760853;79;44240;-26
2021/04/25 05:40:52;;;;;;;17.93;8.70;;;;;;;1.12;100.00;98945.98;3764375;79;43471;-25
2021/04/25 05:45:57;;;;;;;16.07;8.90;;;;;;;1.21;100.00;98940.17;3762925;79;44498;-26
2021/04/25 05:51:04;;;;;;;13.30;8.83;;;;;;;1.29;100.00;98947.70;3761564;79;43446;-26
2021/04/25 05:56:10;;;;;;;15.20;8.33;;;;;;;1.37;100.00;98951.20;3761868;79;44405;-27
2021/04/25 06:01:16;;;;;;;14.87;8.43;;;;;;;1.43;100.00;98942.89;3766162;79;44414;-26
2021/04/25 06:06:22;;;;;;;13.87;7.80;;;;;;;1.54;100.00;98947.09;3764782;79;43685;-26
2021/04/25 06:11:28;;;;;;;15.83;8.10;;;;;;;1.67;100.00;98953.01;3767831;78;43717;-26
2021/04/25 06:16:34;;;;;;;15.47;7.90;;;;;;;1.81;100.00;98953.04;3771934;78;43434;-27
2021/04/25 06:21:40;;;;;;;16.83;8.23;;;;;;;1.87;100.00;98950.94;3770693;78;44465;-27
2021/04/25 06:26:46;;;;;;;12.13;7.50;;;;;;;1.98;100.00;98954.67;3772125;78;44034;-27
2021/04/25 06:31:52;;;;;;;12.87;7.03;;;;;;;2.12;100.00;98957.80;3771643;78;43250;-27
2021/04/25 06:36:58;;;;;;;13.77;6.83;;;;;;;2.30;100.00;98965.57;3765925;78;44400;-27
2021/04/25 06:42:04;;;;;;;10.37;6.07;;;;;;;2.51;100.00;98963.87;3772517;78;43743;-27
2021/04/25 06:47:13;;;;;;;12.17;6.87;;;;;;;2.67;100.00;98961.93;3770414;78;44092;-22
2021/04/25 06:52:19;;;;;;;9.83;6.10;;;;;;;2.90;100.00;98964.92;3773344;77;43677;-22
2021/04/25 06:57:25;;;;;;;12.80;6.70;;;;;;;3.24;100.00;98964.91;3771412;78;44053;-23
2021/04/25 07:02:31;;;;;;;10.27;5.57;;;;;;;3.50;100.00;98972.11;3772604;77;44482;-23
2021/04/25 07:07:37;;;;;;;13.70;5.47;;;;;;;3.79;100.00;98983.97;3768641;78;44007;-23
2021/04/25 07:12:43;;;;;;;10.03;5.10;;;;;;;3.98;100.00;98977.73;3766869;78;43379;-22
2021/04/25 07:17:51;;;;;;;8.17;4.40;;;;;;;4.24;100.00;98983.08;3756203;78;44039;-22
2021/04/25 07:22:57;;;;;;;8.83;4.40;;;;;;;4.48;100.00;98974.31;3698593;78;44166;-22
2021/04/25 07:28:03;;;;;;;9.23;4.63;;;;;;;4.62;100.00;98987.53;3690178;79;43738;-22
2021/04/25 07:33:09;;;;;;;7.40;4.23;;;;;;;4.69;100.00;98983.08;3689442;80;44034;-22
2021/04/25 07:38:15;;;;;;;7.20;4.60;;;;;;;4.62;100.00;98988.87;3689898;79;44048;-22
2021/04/25 07:43:21;;;;;;;8.50;4.50;;;;;;;4.85;100.00;98984.16;3688895;79;44084;-22
2021/04/25 07:48:29;;;;;;;6.33;4.30;;;;;;;4.91;100.00;98996.59;3687643;79;43455;-22
2021/04/25 07:53:35;;;;;;;8.27;4.67;;;;;;;5.04;100.00;98994.36;3690087;80;44151;-22
2021/04/25 07:58:41;;;;;;;7.17;4.40;;;;;;;5.17;99.39;98996.50;3690504;80;44682;-22
2021/04/25 08:03:47;;;;;;;6.30;4.20;;;;;;;5.43;100.00;98992.39;3686024;80;44040;-23
2021/04/25 08:08:54;;;;;;;8.43;4.83;;;;;;;5.60;100.00;98987.58;3689415;79;44085;-22
2021/04/25 08:13:59;;;;;;;8.60;4.67;;;;;;;5.97;100.00;98991.47;3690794;80;44098;-23
2021/04/25 08:19:05;;;;;;;8.93;4.50;;;;;;;5.81;98.79;98988.66;3686433;80;43726;-23
2021/04/25 08:24:11;;;;;;;6.30;4.50;;;;;;;6.04;97.59;99002.13;3688052;80;43311;-25
2021/04/25 08:29:17;;;;;;;7.47;5.42;;;;;;;5.97;95.21;99002.17;3657202;79;43437;-25
2021/04/25 08:34:23;;;;;;;9.73;4.80;;;;;;;6.31;96.45;98995.58;3687621;79;43889;-25
2021/04/25 08:39:29;;;;;;;10.82;4.78;;;;;;;6.69;93.47;99000.23;3684259;80;43095;-24
2021/04/25 08:44:34;;;;;;;9.27;4.80;;;;;;;6.69;92.86;98993.04;3689212;80;69457;-24
2021/04/25 08:49:41;;;;;;;9.80;5.27;;;;;;;6.85;90.47;98991.83;3690748;80;44009;-24
2021/04/25 08:54:48;;;;;;;8.27;4.77;;;;;;;6.82;90.07;98994.73;3689872;80;44522;-24
2021/04/25 08:59:53;;;;;;;8.17;5.27;;;;;;;6.89;88.94;99000.83;3687052;80;43332;-24
2021/04/25 09:04:59;;;;;;;9.73;4.47;;;;;;;7.22;87.11;98996.38;3690756;80;44519;-25
2021/04/25 09:10:08;;;;;;;8.63;5.50;;;;;;;7.36;86.08;98994.39;3688839;79;43967;-24
2021/04/25 09:15:34;;;;;;;7.80;5.37;;;;;;;7.29;85.89;99005.27;3694711;80;69147;-25
2021/04/25 09:26:00;;;;;;;13.35;5.42;;;;;;;7.89;83.01;99000.27;3981182;73;29398;-24
2021/04/25 09:31:07;;;;;;;8.73;5.50;;;;;;;7.77;81.56;99006.67;3916124;74;43955;-24
2021/04/25 09:36:16;;;;;;;9.83;5.85;;;;;;;8.10;78.73;99015.05;3907691;75;43328;-24
2021/04/25 09:41:29;;;;;;;9.43;5.83;;;;;;;8.17;76.61;99005.98;3922254;75;44044;-25
2021/04/25 09:46:55;;;;;;;9.18;5.90;;;;;;;7.43;79.36;99004.95;3917133;74;43395;-23
2021/04/25 09:52:02;;;;;;;9.60;6.03;;;;;;;7.69;80.04;99005.49;3916934;75;43084;-22
2021/04/25 09:57:10;;;;;;;11.73;6.67;;;;;;;7.78;76.75;99005.19;3909149;75;44020;-23
2021/04/25 10:02:16;;;;;;;11.55;6.67;;;;;;;8.05;78.12;99002.50;3917698;74;44066;-23
2021/04/25 10:07:23;;;;;;;11.30;6.67;;;;;;;7.68;78.56;99009.16;3911993;75;44047;-24
2021/04/25 10:12:31;;;;;;;11.90;5.83;;;;;;;7.78;80.00;99013.73;3907460;75;43714;-24
2021/04/25 10:17:37;;;;;;;12.13;6.10;;;;;;;7.89;76.21;99012.81;3918830;75;43216;-22
2021/04/25 10:22:44;;;;;;;9.65;6.55;;;;;;;7.82;76.44;99007.98;3936662;74;43714;-22
2021/04/25 10:27:58;;;;;;;10.15;6.20;;;;;;;8.02;77.29;99007.64;3940657;74;43531;-22
2021/04/25 10:33:04;;;;;;;10.38;6.75;;;;;;;8.04;77.64;99009.34;3916740;74;44093;-24
2021/04/25 10:38:12;;;;;;;13.70;7.35;;;;;;;7.93;76.73;99014.27;3934878;74;43452;-22
2021/04/25 10:43:20;;;;;;;12.30;6.80;;;;;;;8.08;77.16;99009.43;3946336;74;43673;-22
2021/04/25 10:48:29;;;;;;;10.40;6.70;;;;;;;8.04;78.42;99013.38;3939638;74;43422;-22
2021/04/25 10:53:39;;;;;;;11.30;7.42;;;;;;;8.04;77.79;99018.74;3915168;74;43394;-21
2021/04/25 10:58:47;;;;;;;11.05;7.00;;;;;;;7.91;77.18;99009.05;3950909;74;43517;-22
2021/04/25 11:03:54;;;;;;;15.32;8.05;;;;;;;8.07;77.51;99012.62;3944881;74;44082;-22
2021/04/25 11:09:01;;;;;;;13.83;7.28;;;;;;;8.30;79.76;99015.16;3927166;74;43400;-22
2021/04/25 11:14:08;;;;;;;11.73;7.80;;;;;;;8.24;78.41;99012.52;3941433;74;43429;-22
2021/04/25 11:19:14;;;;;;;10.10;7.13;;;;;;;8.17;78.34;99014.03;3939457;74;43978;-22
2021/04/25 11:24:38;;;;;;;9.80;6.85;;;;;;;8.28;78.56;99011.28;3924491;74;44616;-21
2021/04/25 11:30:05;;;;;;;10.43;7.22;;;;;;;8.26;75.29;99019.95;3918408;74;44074;-22
2021/04/25 11:35:22;;;;;;;11.33;6.87;;;;;;;8.29;76.62;99012.95;3911734;74;43374;-22
2021/04/25 11:40:30;;;;;;;13.30;8.05;;;;;;;8.75;72.89;99017.54;3923176;75;43318;-22
2021/04/25 11:45:36;;;;;;;13.28;6.83;;;;;;;8.79;76.49;99012.27;3913977;74;44038;-22
2021/04/25 11:50:42;;;;;;;15.72;7.17;;;;;;;8.87;73.19;99003.53;3918218;75;44025;-24
2021/04/25 11:55:48;;;;;;;8.28;5.95;;;;;;;8.84;72.80;99006.48;3919987;75;43432;-22
2021/04/25 12:00:55;;;;;;;9.65;5.80;;;;;;;8.91;71.97;99008.97;3908966;74;44096;-22
2021/04/25 12:06:01;;;;;;;9.00;4.92;;;;;;;8.63;70.56;99010.08;3903133;75;44084;-22
2021/04/25 12:11:07;;;;;;;8.33;5.40;;;;;;;8.71;73.13;99017.44;3918305;74;43378;-22
2021/04/25 12:16:18;;;;;;;10.68;5.40;;;;;;;8.43;71.74;99017.15;3908261;75;43509;-22
2021/04/25 12:21:24;;;;;;;8.77;4.50;;;;;;;8.59;71.06;99014.48;3917414;75;44044;-22
2021/04/25 12:26:33;;;;;;;8.48;4.22;;;;;;;8.68;69.72;99016.39;3835092;75;44221;-22
2021/04/25 12:31:45;;;;;;;7.30;4.03;;;;;;;8.69;70.61;99022.59;3833236;75;43291;-23
2021/04/25 12:36:52;;;;;;;10.10;4.03;;;;;;;8.92;68.26;99016.55;3844400;76;70061;-22
2021/04/25 12:42:01;;;;;;;10.32;4.28;;;;;;;9.91;67.06;99008.13;3836110;75;43348;-27
2021/04/25 12:47:09;;;;;;;8.83;4.60;;;;;;;10.09;65.56;98996.14;3826015;76;44046;-27
2021/04/25 12:52:18;;;;;;;10.93;4.10;;;;;;;9.72;63.00;98993.67;3829754;76;44066;-28
2021/04/25 12:57:31;;;;;;;7.58;4.35;;;;;;;9.46;62.76;98998.77;3835956;76;43410;-27
2021/04/25 13:02:37;;;;;;;7.20;4.30;;;;;;;9.72;65.93;98993.67;3843504;76;43986;-26
2021/04/25 13:07:44;;;;;;;8.05;4.70;;;;;;;9.68;65.62;98990.42;3832264;76;43692;-21
2021/04/25 13:12:52;;;;;;;8.00;4.83;;;;;;;9.74;62.66;98986.31;3833123;75;44218;-22
2021/04/25 13:18:08;;;;;;;7.70;5.00;;;;;;;9.83;63.01;98984.62;3820660;76;44116;-23
2021/04/25 13:23:18;;;;;;;6.90;4.35;;;;;;;9.83;63.62;98979.23;3838381;76;43681;-25
2021/04/25 13:28:26;;;;;;;8.70;4.53;;;;;;;9.81;61.35;98975.36;3828604;76;43349;-21
2021/04/25 13:33:35;;;;;;;7.15;4.70;;;;;;;9.97;63.15;98983.32;3837407;76;44036;-22
2021/04/25 13:38:41;;;;;;;6.97;4.30;;;;;;;9.82;61.89;98978.88;3826436;76;43221;-22
2021/04/25 13:43:47;;;;;;;9.60;4.85;;;;;;;9.26;57.20;99000.09;3831703;76;44078;-21
2021/04/25 13:48:56;;;;;;;7.92;4.67;;;;;;;9.44;61.41;98982.78;3815245;75;43992;-21
2021/04/25 13:54:03;;;;;;;7.35;4.95;;;;;;;10.09;57.68;98984.86;3822432;76;44093;-22
2021/04/25 13:59:09;;;;;;;7.62;5.28;;;;;;;9.85;59.41;98976.75;3823682;76;44096;-22
2021/04/25 14:04:16;;;;;;;6.83;5.87;;;;;;;9.76;57.65;98970.88;3838060;76;44093;-22
2021/04/25 14:09:22;;;;;;;11.45;6.42;;;;;;;9.40;58.33;98963.39;3843390;76;44040;-22
2021/04/25 14:14:27;;;;;;;10.50;6.70;;;;;;;10.52;57.40;98957.58;3843601;76;44106;-22
2021/04/25 14:19:33;;;;;;;9.85;6.80;;;;;;;10.92;54.02;98959.95;3849564;76;43684;-22
2021/04/25 14:24:39;;;;;;;9.30;6.03;;;;;;;10.33;57.66;98963.34;3841563;76;43669;-22
2021/04/25 14:29:45;;;;;;;10.75;5.97;;;;;;;9.74;57.55;98968.83;3796984;75;44121;-22
2021/04/25 14:34:51;;;;;;;7.72;5.72;;;;;;;9.44;59.02;98971.16;3798727;77;43450;-22
2021/04/25 14:39:57;;;;;;;7.28;5.22;;;;;;;9.77;59.30;98966.34;3811221;77;44077;-22
2021/04/25 14:45:03;;;;;;;9.90;5.83;;;;;;;9.81;56.79;98969.97;3810919;75;43295;-22
2021/04/25 14:50:15;;;;;;;6.62;5.25;;;;;;;9.46;59.44;98968.70;3815232;75;43669;-22
2021/04/25 14:55:24;;;;;;;5.28;4.22;;;;;;;9.68;57.57;98974.28;3810536;75;43688;-22
2021/04/25 15:00:31;;;;;;;5.85;3.70;;;;;;;9.42;54.88;98968.62;3817885;76;43345;-22
2021/04/25 15:05:38;;;;;;;5.62;3.80;;;;;;;10.23;53.14;98966.05;3807796;77;43712;-23
2021/04/25 15:10:46;;;;;;;4.53;3.50;;;;;;;10.18;50.79;98967.83;3817744;77;43533;-22
2021/04/25 15:15:53;;;;;;;5.83;3.25;;;;;;;9.71;50.99;98965.94;3816005;75;43690;-22
2021/04/25 15:20:59;;;;;;;6.78;3.00;;;;;;;10.18;48.21;98973.22;3809943;75;43444;-22
2021/04/25 15:26:07;;;;;;;3.47;2.92;;;;;;;10.25;45.69;98987.47;3850262;74;43746;-23
2021/04/25 15:31:14;;;;;;;4.78;2.75;;;;;;;10.38;45.99;98968.31;3938743;74;44034;-21
2021/04/25 15:36:22;;;;;;;4.92;2.92;;;;;;;10.04;43.04;98973.70;3933815;74;44026;-25
2021/04/25 15:41:28;;;;;;;3.58;2.30;;;;;;;9.58;44.31;98980.67;3935093;74;43457;-24
2021/04/25 15:46:34;;;;;;;7.80;2.17;;;;;;;9.46;44.72;98981.28;3942905;74;43690;-24
2021/04/25 15:51:41;;;;;;;4.20;2.20;;;;;;;9.08;43.45;98972.52;3929309;74;43015;-25
2021/04/25 15:56:47;;;;;;;3.15;2.08;;;;;;;9.38;44.40;98978.81;3923070;74;44046;-24
2021/04/25 16:01:56;;;;;;;3.55;2.20;;;;;;;9.37;43.26;98981.14;3945423;74;26852;-25
2021/04/25 16:07:02;;;;;;;5.03;2.35;;;;;;;9.47;45.06;98971.72;3927084;74;44024;-25
2021/04/25 16:12:09;;;;;;;4.45;2.50;;;;;;;9.69;45.32;98975.98;3945800;74;43359;-25
2021/04/25 16:17:15;;;;;;;4.05;2.40;;;;;;;9.33;47.77;98980.22;3933431;74;44012;-25
2021/04/25 16:22:22;;;;;;;4.60;2.92;;;;;;;10.12;45.21;98977.85;3934465;74;43370;-25
2021/04/25 16:27:28;;;;;;;5.30;2.92;;;;;;;10.66;44.14;98971.89;3902916;74;43979;-25
2021/04/25 16:32:34;;;;;;;7.08;3.20;;;;;;;9.58;48.30;98967.22;3895328;74;44016;-25
2021/04/25 16:37:41;;;;;;;4.35;2.80;;;;;;;10.39;47.70;98970.88;3897335;75;44061;-26
2021/04/25 16:42:48;;;;;;;2.98;2.52;;;;;;;10.62;46.88;98975.91;3888148;75;44656;-25
2021/04/25 16:47:56;;;;;;;3.52;2.50;;;;;;;11.49;44.58;98976.88;3881768;75;43431;-25
2021/04/25 16:53:02;;;;;;;6.35;2.77;;;;;;;10.87;45.79;98982.96;3883801;75;43424;-25
2021/04/25 16:58:09;;;;;;;3.83;2.55;;;;;;;11.51;44.07;98981.15;3884481;74;44032;-25
2021/04/25 17:03:15;;;;;;;4.92;2.62;;;;;;;10.45;44.02;98987.79;3887986;74;43417;-26
2021/04/25 17:08:20;;;;;;;3.80;2.45;;;;;;;10.29;44.56;98985.68;3886677;75;44240;-25
2021/04/25 17:13:27;;;;;;;4.05;2.37;;;;;;;10.62;44.02;98988.03;3887933;75;43440;-25
2021/04/25 17:18:33;;;;;;;3.83;2.70;;;;;;;9.80;45.10;98992.48;3873599;74;43275;-25
2021/04/25 17:23:39;;;;;;;6.47;3.02;;;;;;;9.65;46.90;98997.42;3887768;75;42676;-25
2021/04/25 17:28:45;;;;;;;5.55;2.55;;;;;;;8.94;48.96;98996.61;3911532;75;43299;-25
2021/04/25 17:33:52;;;;;;;4.95;2.80;;;;;;;8.61;49.56;98999.09;3908635;74;43136;-25
2021/04/25 17:38:59;;;;;;;5.08;3.42;;;;;;;8.41;50.33;98996.80;3912312;74;44606;-25
2021/04/25 17:44:08;;;;;;;6.40;3.47;;;;;;;8.72;50.96;99003.53;3917191;73;43588;-25
2021/04/25 17:49:24;;;;;;;4.35;2.75;;;;;;;8.99;49.59;98997.55;3927370;75;44001;-23
2021/04/25 17:54:31;;;;;;;5.50;3.33;;;;;;;9.08;49.89;99002.59;3912508;75;42858;-25
2021/04/25 17:59:39;;;;;;;5.20;2.83;;;;;;;8.99;50.09;99000.73;3920745;75;44019;-25
2021/04/25 18:04:46;;;;;;;3.77;2.50;;;;;;;8.38;51.34;98997.89;3915534;74;44062;-25
2021/04/25 18:09:52;;;;;;;4.40;2.40;;;;;;;8.08;51.53;99001.38;3912034;75;43395;-25
2021/04/25 18:14:58;;;;;;;8.48;3.05;;;;;;;7.74;51.86;98996.19;3916473;74;43278;-25
2021/04/25 18:20:07;;;;;;;4.17;2.85;;;;;;;7.52;52.55;98996.65;3922766;75;43396;-25
2021/04/25 18:25:14;;;;;;;4.67;3.02;;;;;;;7.25;53.35;99000.16;3906457;75;44085;-25
2021/04/25 18:30:23;;;;;;;4.75;2.80;;;;;;;6.86;53.83;99000.23;3920723;75;43738;-25
2021/04/25 18:35:31;;;;;;;3.93;2.20;;;;;;;6.65;53.13;99002.28;3912616;75;44494;-26
2021/04/25 18:40:40;;;;;;;3.53;2.40;;;;;;;6.47;51.46;98999.23;3917510;74;44004;-26
2021/04/25 18:45:49;;;;;;;4.30;2.42;;;;;;;6.46;52.17;99005.59;3904591;75;43568;-27
2021/04/25 18:50:56;;;;;;;3.23;2.00;;;;;;;6.41;52.06;99003.25;3915812;75;43016;-27
2021/04/25 18:56:02;;;;;;;4.47;2.17;;;;;;;6.24;51.51;99017.11;3912196;74;44027;-26
2021/04/25 19:01:10;;;;;;;2.97;1.93;;;;;;;6.14;51.21;99015.15;3914314;75;44014;-26
2021/04/25 19:06:18;;;;;;;4.17;2.02;;;;;;;6.09;51.25;99017.31;3914228;75;43387;-27
2021/04/25 19:11:26;;;;;;;2.90;1.93;;;;;;;6.00;50.54;99014.85;3924126;74;44586;-27
2021/04/25 19:16:32;;;;;;;3.17;2.00;;;;;;;5.90;50.69;99017.83;3890471;74;44092;-26
2021/04/25 19:21:39;;;;;;;2.65;1.90;;;;;;;5.84;50.21;99015.14;3944829;75;73209;-26
2021/04/25 19:26:44;;;;;;;3.50;2.10;;;;;;;5.79;50.26;99012.45;3926355;74;43670;-27
2021/04/25 19:31:55;;;;;;;3.70;1.70;;;;;;;5.73;50.59;99020.45;3933559;75;73306;-27
2021/04/25 19:37:03;;;;;;;2.03;1.60;;;;;;;5.62;50.56;99020.41;3929221;75;43275;-28
2021/04/25 19:42:09;;;;;;;3.05;1.70;;;;;;;5.60;50.55;99020.53;3795245;76;43366;-26
2021/04/25 19:47:15;;;;;;;2.30;1.60;;;;;;;5.61;49.81;99025.37;3905888;74;43686;-27
2021/04/25 19:52:21;;;;;;;2.47;1.42;;;;;;;5.65;49.45;99016.17;3924673;75;73232;-28
2021/04/25 19:57:31;;;;;;;2.83;1.37;;;;;;;5.54;49.33;99015.16;3914025;75;43432;-26
2021/04/25 20:02:38;;;;;;;1.30;1.20;;;;;;;5.46;49.88;99016.23;3921110;75;44133;-26
2021/04/25 20:07:44;;;;;;;2.97;1.40;;;;;;;5.43;49.49;99019.12;3910346;75;44055;-27
2021/04/25 20:12:50;;;;;;;2.43;1.23;;;;;;;5.42;49.19;99023.22;3911135;75;43759;-27
2021/04/25 20:17:56;;;;;;;3.67;1.60;;;;;;;5.45;49.38;99014.98;3916398;74;44074;-27
2021/04/25 20:23:03;;;;;;;2.40;1.10;;;;;;;5.34;48.70;99023.81;3909591;75;44061;-27
2021/04/25 20:28:11;;;;;;;1.13;0.90;;;;;;;5.39;48.15;99027.84;3901896;75;44166;-27
2021/04/25 20:33:18;;;;;;;3.10;1.20;;;;;;;5.39;48.23;99024.30;3919053;75;44503;-27
2021/04/25 20:38:24;;;;;;;3.13;1.10;;;;;;;5.28;48.56;99024.25;3908294;75;44239;-27
2021/04/25 20:43:30;;;;;;;1.50;1.07;;;;;;;5.23;49.89;99023.25;3909959;75;44087;-27
2021/04/25 20:48:36;;;;;;;2.60;1.30;;;;;;;5.12;49.47;99028.03;3902480;75;44113;-27
2021/04/25 20:53:41;;;;;;;1.90;1.10;;;;;;;5.07;50.46;99023.52;3913019;74;43688;-27
2021/04/25 20:58:47;;;;;;;2.83;1.40;;;;;;;4.99;50.55;99015.22;3909438;75;44078;-27
2021/04/25 21:03:57;;;;;;;2.43;1.23;;;;;;;4.89;51.27;99013.69;3913099;75;43717;-28
2021/04/25 21:09:05;;;;;;;2.20;1.57;;;;;;;4.76;51.54;99023.91;3933273;75;43686;-28
2021/04/25 21:14:10;;;;;;;3.10;1.30;;;;;;;4.70;51.72;99026.16;3938387;75;43692;-28
2021/04/25 21:19:18;;;;;;;3.30;1.57;;;;;;;4.62;51.87;99024.03;3918771;75;44035;-28
2021/04/25 21:24:24;;;;;;;1.70;1.20;;;;;;;4.66;52.11;99022.86;3909998;74;44205;-28
2021/04/25 21:29:29;;;;;;;2.27;1.20;;;;;;;4.59;52.65;99029.11;3908044;74;43639;-26
2021/04/25 21:34:36;;;;;;;4.23;1.43;;;;;;;4.44;53.08;99018.17;3923972;75;43380;-28
2021/04/25 21:39:42;;;;;;;2.57;1.20;;;;;;;4.30;53.54;99017.31;3921170;75;43369;-26
2021/04/25 21:44:48;;;;;;;2.47;1.30;;;;;;;4.24;53.73;99022.22;3923697;74;43590;-27
2021/04/25 21:49:53;;;;;;;1.70;1.20;;;;;;;4.17;53.91;99008.48;3906189;75;43769;-26
2021/04/25 21:54:59;;;;;;;1.43;1.20;;;;;;;4.18;53.99;99018.66;3912952;74;43372;-28
2021/04/25 22:00:09;;;;;;;2.60;1.27;;;;;;;4.03;54.31;99019.23;3904269;75;44031;-28
2021/04/25 22:05:16;;;;;;;1.97;1.20;;;;;;;4.00;54.40;99014.95;3907983;75;26435;-26
2021/04/25 22:10:24;;;;;;;2.13;1.10;;;;;;;3.99;55.41;99016.77;3903853;74;44497;-27
2021/04/25 22:15:29;;;;;;;2.27;1.10;;;;;;;3.90;55.05;99008.08;3917175;75;44025;-27
2021/04/25 22:20:36;;;;;;;2.17;1.10;;;;;;;3.77;55.18;99004.04;3897378;75;44511;-26
2021/04/25 22:25:43;;;;;;;1.90;1.20;;;;;;;3.66;56.03;98998.12;3899381;74;44036;-26
2021/04/25 22:30:51;;;;;;;4.27;1.20;;;;;;;3.45;57.07;98992.41;3904790;75;43219;-27
2021/04/25 22:35:57;;;;;;;2.30;1.33;;;;;;;3.16;58.87;98992.98;3912972;75;43690;-27
2021/04/25 22:41:04;;;;;;;2.63;1.17;;;;;;;2.98;60.09;98993.25;3908684;74;43696;-27
2021/04/25 22:46:11;;;;;;;2.57;1.40;;;;;;;2.73;61.54;98993.48;3923885;75;44054;-27
2021/04/25 22:51:18;;;;;;;3.63;1.40;;;;;;;2.58;62.51;98991.78;3925816;75;43285;-26
2021/04/25 22:56:25;;;;;;;3.70;1.33;;;;;;;2.49;63.03;98987.05;3918681;74;43691;-26
2021/04/25 23:01:31;;;;;;;2.07;1.47;;;;;;;2.40;63.28;98983.15;3919018;74;44065;-26
2021/04/25 23:06:37;;;;;;;2.63;1.40;;;;;;;2.32;63.96;98982.29;3911472;75;44026;-27
2021/04/25 23:11:44;;;;;;;2.27;1.30;;;;;;;2.22;64.06;98969.19;3919897;74;44471;-26
2021/04/25 23:16:49;;;;;;;2.10;1.23;;;;;;;2.20;64.23;98961.78;3894516;75;43652;-26
2021/04/25 23:21:55;;;;;;;2.17;1.17;;;;;;;2.15;64.23;98961.61;3924605;75;44202;-27
2021/04/25 23:27:01;;;;;;;2.70;1.10;;;;;;;2.18;64.49;98963.67;3925157;75;43733;-28
2021/04/25 23:32:07;;;;;;;3.53;1.10;;;;;;;2.14;63.61;98953.25;3923721;75;43753;-26
2021/04/25 23:37:13;;;;;;;2.27;1.20;;;;;;;2.12;63.09;98955.14;3903693;75;43616;-28
2021/04/25 23:42:20;;;;;;;2.00;1.20;;;;;;;2.05;63.70;98955.16;3929652;75;43735;-27
2021/04/25 23:47:26;;;;;;;2.17;1.00;;;;;;;2.01;64.10;98960.27;3910750;75;44551;-28
2021/04/25 23:52:32;;;;;;;2.40;1.10;;;;;;;2.07;63.61;98966.52;3916905;75;43345;-28
2021/04/25 23:57:38;;;;;;;2.07;1.13;;;;;;;2.09;64.09;98959.31;3916489;74;44075;-28
